page 1295 of 1003867 registered users

eBook PostsUsers

  1. 0zhangying registered @ 2010-04-01 12:44:31, last login @ 2010-04-02 07:55:55
  2. 0sqmdream registered @ 2010-04-01 12:48:37, last login @ 2010-04-01 12:48:37
  3. 0caro_sh1221 registered @ 2010-04-01 12:52:15, last login @ 2010-04-01 12:52:15
  4. 0guanluhan registered @ 2010-04-01 12:52:46, last login @ 2010-04-01 12:52:46
  5. 0tianjian registered @ 2010-04-01 12:57:52, last login @ 2010-04-01 12:57:52
  6. 0qiongge123456 registered @ 2010-04-01 13:04:04, last login @ 2010-04-01 13:04:04
  7. 0euroue registered @ 2010-04-01 13:04:49, last login @ 2010-04-01 13:04:49
  8. 0ziqichen registered @ 2010-04-01 13:05:51, last login @ 2010-04-01 13:07:23
  9. 0Allison2010 registered @ 2010-04-01 13:09:02, last login @ 2010-04-01 13:09:02
  10. 0setyabud registered @ 2010-04-01 13:15:59, last login @ 2010-04-01 13:15:59
  11. 0kitty2010 registered @ 2010-04-01 13:16:04, last login @ 2010-04-01 13:22:14
  12. 0ali1352103 registered @ 2010-04-01 13:16:38, last login @ 2010-04-01 13:16:38
  13. 0louqm2005 registered @ 2010-04-01 13:17:19, last login @ 2010-04-01 13:17:19
  14. 0yifei_niu registered @ 2010-04-01 13:21:32, last login @ 2010-04-01 13:21:32
  15. 0charliechong registered @ 2010-04-01 13:29:37, last login @ 2010-04-01 13:29:37
  16. 0kongfeixian registered @ 2010-04-01 13:30:43, last login @ 2010-04-01 13:30:43
  17. 0aabb registered @ 2010-04-01 13:36:00, last login @ 2010-04-01 13:36:00
  18. 0maklyassods registered @ 2010-04-01 13:36:25, last login @ 2010-04-02 12:15:46
  19. 0yuanwangxu registered @ 2010-04-01 13:37:24, last login @ 2010-04-01 13:45:53
  20. 0hitcaptain registered @ 2010-04-01 13:38:33, last login @ 2010-07-23 20:55:25
  21. 0Praveanidivi registered @ 2010-04-01 13:38:58, last login @ 2010-04-01 13:38:58
  22. 0LoagodrahWage registered @ 2010-04-01 13:42:10, last login @ 2010-04-01 13:42:10
  23. 0wolfzzxxll registered @ 2010-04-01 13:42:30, last login @ 2010-04-01 13:42:30
  24. 0berre registered @ 2010-04-01 13:42:59, last login @ 2010-10-21 23:45:40
  25. 0ykaraca registered @ 2010-04-01 13:55:42, last login @ 2010-04-01 13:55:42
  26. 0panqiongge registered @ 2010-04-01 14:00:03, last login @ 2010-04-01 14:00:03
  27. 0ehsanm17 registered @ 2010-04-01 14:07:21, last login @ 2010-04-01 14:10:59
  28. 0consting registered @ 2010-04-01 14:08:05, last login @ 2010-04-01 14:08:05
  29. 0linghu registered @ 2010-04-01 14:11:38, last login @ 2010-04-01 14:12:05
  30. 0sunnyfish registered @ 2010-04-01 14:15:55, last login @ 2010-04-01 14:15:55
  31. 0liuyuyonglaoshi registered @ 2010-04-01 14:16:26, last login @ 2010-04-01 14:16:26
  32. 0jiangjinbao1209 registered @ 2010-04-01 14:19:22, last login @ 2010-04-01 14:19:22
  33. 0yunyun registered @ 2010-04-01 14:23:59, last login @ 2010-04-01 14:23:59
  34. 02002jupiter registered @ 2010-04-01 14:24:44, last login @ 2010-04-01 14:24:44
  35. 0jamesgoodwin registered @ 2010-04-01 14:26:50, last login @ 2010-04-02 05:01:01
  36. 0xlk75 registered @ 2010-04-01 14:28:40, last login @ 2010-04-01 14:28:40
  37. 0weiwanghnu registered @ 2010-04-01 14:33:51, last login @ 2010-04-01 14:37:33
  38. 0cartoon8720 registered @ 2010-04-01 14:35:26, last login @ 2010-04-01 14:35:26
  39. 0Keeboareefmal registered @ 2010-04-01 14:44:39, last login @ 2010-04-01 14:44:39
  40. 0muasoon registered @ 2010-04-01 14:46:09, last login @ 2010-04-01 14:46:09
  41. 0liushuhai registered @ 2010-04-01 14:47:51, last login @ 2010-04-01 14:47:51
  42. 0magnet registered @ 2010-04-01 14:48:27, last login @ 2010-04-01 14:50:55
  43. 0cbs_bju registered @ 2010-04-01 14:49:50, last login @ 2010-04-01 14:49:50
  44. 0vids registered @ 2010-04-01 14:50:14, last login @ 2010-04-01 14:50:14
  45. 0Booksneeded registered @ 2010-04-01 14:57:57, last login @ 2010-04-01 15:00:12
  46. 0violette registered @ 2010-04-01 14:58:51, last login @ 2010-04-01 14:58:51
  47. 0whimmy registered @ 2010-04-01 14:59:41, last login @ 2010-04-01 14:59:41
  48. 0number123 registered @ 2010-04-01 15:01:10, last login @ 2010-04-01 15:01:10
  49. 0yinyuan registered @ 2010-04-01 15:02:05, last login @ 2010-04-01 15:02:05
  50. 0accerrose registered @ 2010-04-01 15:02:20, last login @ 2010-04-01 15:02:20
  51. 0clubpenguinsecrets registered @ 2010-04-01 15:02:39, last login @ 2010-04-01 15:02:39
  52. 0yhguo registered @ 2010-04-01 15:06:42, last login @ 2010-04-01 15:08:31
  53. 0nosae registered @ 2010-04-01 15:22:44, last login @ 2010-04-01 15:22:44
  54. 0hulinmin registered @ 2010-04-01 15:35:22, last login @ 2010-04-01 15:37:21
  55. 0alex_tpf registered @ 2010-04-01 15:35:35, last login @ 2010-04-01 15:35:35
  56. 0angelo10 registered @ 2010-04-01 15:36:34, last login @ 2010-04-01 15:36:34
  57. 0yared registered @ 2010-04-01 15:38:50, last login @ 2010-04-01 15:38:50
  58. 0wsnpf05 registered @ 2010-04-01 15:42:32, last login @ 2010-04-21 15:02:01
  59. 0hlhlhl registered @ 2010-04-01 15:43:05, last login @ 2010-04-01 15:43:58
  60. 0hemant_sanjeeva registered @ 2010-04-01 15:44:46, last login @ 2010-04-01 15:44:46
  61. 0lichao0726 registered @ 2010-04-01 15:51:08, last login @ 2010-04-01 15:51:08
  62. 0david_luo1986 registered @ 2010-04-01 15:52:30, last login @ 2010-04-01 15:52:30
  63. 0zhumengdewo registered @ 2010-04-01 15:52:56, last login @ 2010-04-01 15:52:56
  64. 0sstemptation registered @ 2010-04-01 15:54:22, last login @ 2010-04-01 15:55:06
  65. 0htangli registered @ 2010-04-01 16:03:06, last login @ 2010-04-01 16:03:06
  66. 0suzyxcao registered @ 2010-04-01 16:05:43, last login @ 2010-04-01 16:05:43
  67. 0JRichmondJJS registered @ 2010-04-01 16:08:26, last login @ 2010-04-01 16:08:26
  68. 0dentisttfh registered @ 2010-04-01 16:09:24, last login @ 2010-04-01 16:09:24
  69. 0qinzhen88 registered @ 2010-04-01 16:09:28, last login @ 2010-04-01 16:10:22
  70. 0satau registered @ 2010-04-01 16:15:57, last login @ 2010-04-01 16:15:57
  71. 0su27skk registered @ 2010-04-01 16:20:32, last login @ 2010-04-01 16:20:32
  72. 0robberttwelss registered @ 2010-04-01 16:24:06, last login @ 2010-04-04 13:31:36
  73. 04asa4 registered @ 2010-04-01 16:29:48, last login @ 2010-04-01 16:29:48
  74. 0fredbloggs registered @ 2010-04-01 16:59:29, last login @ 2010-04-01 16:59:29
  75. 0liyan621728 registered @ 2010-04-01 17:06:13, last login @ 2010-04-01 17:06:13
  76. 0freakyzeeky registered @ 2010-04-01 17:12:31, last login @ 2010-04-01 17:12:31
  77. 0yuanfq registered @ 2010-04-01 17:18:13, last login @ 2010-10-18 03:37:28
  78. 0mumu7656 registered @ 2010-04-01 17:20:40, last login @ 2010-04-01 17:20:40
  79. 0epheteery registered @ 2010-04-01 17:26:08, last login @ 2010-04-01 17:26:08
  80. 0PuerariaOk registered @ 2010-04-01 17:29:47, last login @ 2010-10-04 09:11:04
  81. 0waikheong registered @ 2010-04-01 17:39:00, last login @ 2010-04-01 17:39:00
  82. 0rakesh_20003 registered @ 2010-04-01 17:41:06, last login @ 2010-04-01 18:01:48
  83. 0debasis_maity registered @ 2010-04-01 17:42:32, last login @ 2010-04-01 17:42:32
  84. 0taurus0400 registered @ 2010-04-01 17:54:32, last login @ 2010-04-01 17:54:32
  85. 0bardiaa registered @ 2010-04-01 18:05:37, last login @ 2010-04-02 05:50:22
  86. 0Favatron registered @ 2010-04-01 18:08:06, last login @ 2010-04-08 03:14:45
  87. 0zargist registered @ 2010-04-01 18:15:40, last login @ 2010-04-01 18:55:27
  88. 0alemfieffible registered @ 2010-04-01 18:29:31, last login @ 2010-04-01 18:29:31
  89. 0Jeasseastobre registered @ 2010-04-01 18:34:03, last login @ 2010-04-01 18:34:03
  90. 0Donnatella registered @ 2010-04-01 18:57:16, last login @ 2010-04-01 18:57:16
  91. 0Addesycle registered @ 2010-04-01 18:57:55, last login @ 2010-04-01 18:57:55
  92. 0jim366 registered @ 2010-04-01 19:16:14, last login @ 2010-06-06 20:45:38
  93. 0Bolthousez registered @ 2010-04-01 19:20:22, last login @ 2010-04-01 19:20:22
  94. 0sauravikon registered @ 2010-04-01 19:26:57, last login @ 2010-04-01 19:26:57
  95. 0NicolasMan registered @ 2010-04-01 19:34:58, last login @ 2010-04-01 19:34:58
  96. 0pinkydinky13 registered @ 2010-04-01 19:37:38, last login @ 2010-04-01 19:37:38
  97. 0suexadsinleld registered @ 2010-04-01 19:58:47, last login @ 2010-04-01 19:58:47
  98. 0tkoletu registered @ 2010-04-01 20:22:42, last login @ 2010-04-02 02:48:17
  99. 0yjwang04 registered @ 2010-04-01 20:27:18, last login @ 2010-04-01 20:27:18
  100. 0drvenom registered @ 2010-04-01 20:43:47, last login @ 2010-04-01 20:48:18
  101. 0newadat registered @ 2010-04-01 21:30:16, last login @ 2010-04-01 21:30:16

More...

[1305] [1304] [1303] [1302] [1301] [1300] [1299] [1298] [1297] [1296] [1295] [1294] [1293] [1292] [1291] [1290] [1289] [1288] [1287] [1286] ...[1]
Back to Top